createdAt,value
2017-07-24T00:00:17.197Z,19.11
2017-07-24T00:01:16.897Z,19.12
2017-07-24T00:02:17.200Z,19.09
2017-07-24T00:03:16.884Z,19.09
2017-07-24T00:04:17.189Z,19.15
2017-07-24T00:05:16.886Z,19.11
2017-07-24T00:06:16.881Z,18.97
2017-07-24T00:07:16.881Z,19.11
2017-07-24T00:08:17.183Z,19.07
2017-07-24T00:09:17.177Z,19.07
2017-07-24T00:10:17.196Z,18.98
2017-07-24T00:11:17.173Z,19.05
2017-07-24T00:12:17.173Z,19.05
2017-07-24T00:13:17.167Z,19.09
2017-07-24T00:14:17.275Z,19.01
2017-07-24T00:15:17.279Z,18.92
2017-07-24T00:16:16.856Z,18.94
2017-07-24T00:17:17.161Z,18.97
2017-07-24T00:18:17.158Z,19.07
2017-07-24T00:19:16.850Z,19.07
2017-07-24T00:20:16.852Z,19.04
2017-07-24T00:21:17.151Z,18.92
2017-07-24T00:22:17.150Z,18.91
2017-07-24T00:23:17.149Z,18.89
2017-07-24T00:24:17.153Z,18.92
2017-07-24T00:25:17.144Z,18.89
2017-07-24T00:26:17.146Z,18.91
2017-07-24T00:27:17.139Z,18.92
2017-07-24T00:28:17.143Z,18.91
2017-07-24T00:29:17.132Z,18.89
2017-07-24T00:30:16.828Z,18.89
2017-07-24T00:31:17.134Z,18.78
2017-07-24T00:32:16.822Z,18.86
2017-07-24T00:33:17.227Z,18.86
2017-07-24T00:34:17.130Z,18.85
2017-07-24T00:35:17.221Z,18.7
2017-07-24T00:36:17.116Z,18.81
2017-07-24T00:37:16.811Z,18.71
2017-07-24T00:38:17.117Z,18.66
2017-07-24T00:39:17.214Z,18.63
2017-07-24T00:40:16.504Z,18.71
2017-07-24T00:41:17.112Z,18.67
2017-07-24T00:42:17.106Z,18.74
2017-07-24T00:43:17.111Z,18.78
2017-07-24T00:44:17.104Z,18.7
2017-07-24T00:45:17.106Z,18.78
2017-07-24T00:46:17.103Z,18.67
2017-07-24T00:47:17.097Z,18.64
2017-07-24T00:48:17.193Z,18.73
2017-07-24T00:49:17.240Z,18.61
2017-07-24T00:50:17.094Z,18.55
2017-07-24T00:51:17.087Z,18.57
2017-07-24T00:52:17.082Z,18.52
2017-07-24T00:53:17.092Z,18.48
2017-07-24T00:54:17.083Z,18.46
2017-07-24T00:55:17.077Z,18.49
2017-07-24T00:56:17.079Z,18.53
2017-07-24T00:57:17.176Z,18.48
2017-07-24T00:58:17.191Z,18.41
2017-07-24T00:59:17.077Z,18.42
2017-07-24T01:00:16.765Z,18.52
2017-07-24T01:01:17.070Z,18.45
2017-07-24T01:02:17.162Z,18.45
2017-07-24T01:03:17.083Z,18.49
2017-07-24T01:04:16.750Z,18.49
2017-07-24T01:05:17.070Z,18.53
2017-07-24T01:06:17.051Z,18.63
2017-07-24T01:07:17.053Z,18.55
2017-07-24T01:08:17.052Z,18.64
2017-07-24T01:09:17.055Z,18.66
2017-07-24T01:10:17.044Z,18.57
2017-07-24T01:11:17.040Z,18.64
2017-07-24T01:12:17.038Z,18.64
2017-07-24T01:13:17.040Z,18.67
2017-07-24T01:14:17.034Z,18.7
2017-07-24T01:15:17.055Z,18.7
2017-07-24T01:16:17.032Z,18.68
2017-07-24T01:17:16.723Z,18.66
2017-07-24T01:18:17.178Z,18.61
2017-07-24T01:19:17.028Z,18.73
2017-07-24T01:20:17.025Z,18.67
2017-07-24T01:21:17.023Z,18.7
2017-07-24T01:22:17.030Z,18.7
2017-07-24T01:23:17.017Z,18.66
2017-07-24T01:24:16.813Z,18.73
2017-07-24T01:25:17.013Z,18.71
2017-07-24T01:26:17.018Z,18.74
2017-07-24T01:27:17.004Z,18.66
2017-07-24T01:28:17.004Z,18.73
2017-07-24T01:29:17.000Z,18.64
2017-07-24T01:30:17.000Z,18.7
2017-07-24T01:31:17.000Z,18.68
2017-07-24T01:32:16.996Z,18.68
2017-07-24T01:33:16.692Z,18.64
2017-07-24T01:34:16.991Z,18.61
2017-07-24T01:35:17.165Z,18.58
2017-07-24T01:36:16.989Z,18.57
2017-07-24T01:37:16.984Z,18.61
2017-07-24T01:38:16.985Z,18.53
2017-07-24T01:39:16.675Z,18.42
2017-07-24T01:40:16.977Z,18.42
2017-07-24T01:41:16.980Z,18.41
2017-07-24T01:42:16.972Z,18.37
2017-07-24T01:43:16.971Z,18.46
2017-07-24T01:44:16.765Z,18.41
2017-07-24T01:45:16.967Z,18.33
2017-07-24T01:46:16.968Z,18.3
2017-07-24T01:47:16.966Z,18.28
2017-07-24T01:48:16.959Z,18.34
2017-07-24T01:49:16.961Z,18.34
2017-07-24T01:50:16.952Z,18.28
2017-07-24T01:51:16.954Z,18.27
2017-07-24T01:52:16.953Z,18.27
2017-07-24T01:53:16.950Z,18.24
2017-07-24T01:54:16.947Z,18.28
2017-07-24T01:55:16.945Z,18.21
2017-07-24T01:56:17.097Z,18.27
2017-07-24T01:57:16.962Z,18.21
2017-07-24T01:58:16.940Z,18.21
2017-07-24T01:59:16.938Z,18.18
2017-07-24T02:00:16.934Z,18.26
2017-07-24T02:01:16.935Z,18.27
2017-07-24T02:02:16.932Z,18.08
2017-07-24T02:03:16.928Z,18.15
2017-07-24T02:04:16.929Z,18.08
2017-07-24T02:05:16.920Z,18.15
2017-07-24T02:06:16.923Z,18.12
2017-07-24T02:07:16.616Z,18.15
2017-07-24T02:08:16.919Z,18.13
2017-07-24T02:09:16.917Z,18.13
2017-07-24T02:10:16.911Z,18.12
2017-07-24T02:11:16.607Z,18.12
2017-07-24T02:12:16.601Z,18.06
2017-07-24T02:13:16.906Z,18.05
2017-07-24T02:14:17.054Z,17.98
2017-07-24T02:15:16.897Z,17.95
2017-07-24T02:16:16.897Z,17.94
2017-07-24T02:17:16.906Z,18
2017-07-24T02:18:16.592Z,18.02
2017-07-24T02:19:16.889Z,17.95
2017-07-24T02:20:16.892Z,17.95
2017-07-24T02:21:16.885Z,17.98
2017-07-24T02:22:16.581Z,17.95
2017-07-24T02:23:16.979Z,17.97
2017-07-24T02:24:16.727Z,17.88
2017-07-24T02:25:16.979Z,17.98
2017-07-24T02:26:16.876Z,17.97
2017-07-24T02:27:16.872Z,17.95
2017-07-24T02:28:16.869Z,17.88
2017-07-24T02:29:16.862Z,17.91
2017-07-24T02:30:16.875Z,17.87
2017-07-24T02:31:16.868Z,17.82
2017-07-24T02:32:16.860Z,17.78
2017-07-24T02:33:16.654Z,17.84
2017-07-24T02:34:16.859Z,17.71
2017-07-24T02:35:16.854Z,17.71
2017-07-24T02:36:16.545Z,17.69
2017-07-24T02:37:16.547Z,17.69
2017-07-24T02:38:16.849Z,17.65
2017-07-24T02:39:16.865Z,17.59
2017-07-24T02:40:16.534Z,17.54
2017-07-24T02:41:16.842Z,17.56
2017-07-24T02:42:16.329Z,17.5
2017-07-24T02:43:16.535Z,17.44
2017-07-24T02:44:16.228Z,17.47
2017-07-24T02:45:16.625Z,17.5
2017-07-24T02:46:16.520Z,17.44
2017-07-24T02:47:16.823Z,17.49
2017-07-24T02:48:16.822Z,17.49
2017-07-24T02:49:16.823Z,17.5
2017-07-24T02:50:16.824Z,17.46
2017-07-24T02:51:16.509Z,17.42
2017-07-24T02:52:16.817Z,17.42
2017-07-24T02:53:16.809Z,17.37
2017-07-24T02:54:16.504Z,17.42
2017-07-24T02:55:16.812Z,17.35
2017-07-24T02:56:16.808Z,17.41
2017-07-24T02:57:16.804Z,17.44
2017-07-24T02:58:16.496Z,17.41
2017-07-24T02:59:16.799Z,17.35
2017-07-24T03:00:16.797Z,17.32
2017-07-24T03:01:16.897Z,17.37
2017-07-24T03:02:16.792Z,17.31
2017-07-24T03:03:16.788Z,17.35
2017-07-24T03:04:16.784Z,17.34
2017-07-24T03:05:16.782Z,17.34
2017-07-24T03:06:16.781Z,17.37
2017-07-24T03:07:16.779Z,17.37
2017-07-24T03:08:16.777Z,17.37
2017-07-24T03:09:16.464Z,17.34
2017-07-24T03:10:16.870Z,17.31
2017-07-24T03:11:16.464Z,17.24
2017-07-24T03:12:16.762Z,17.27
2017-07-24T03:13:16.767Z,17.24
2017-07-24T03:14:16.861Z,17.28
2017-07-24T03:15:16.861Z,17.28
2017-07-24T03:16:16.754Z,17.3
2017-07-24T03:17:16.776Z,17.27
2017-07-24T03:18:16.748Z,17.32
2017-07-24T03:19:16.753Z,17.24
2017-07-24T03:20:16.848Z,17.24
2017-07-24T03:21:16.745Z,17.24
2017-07-24T03:22:16.740Z,17.27
2017-07-24T03:23:16.739Z,17.28
2017-07-24T03:24:16.735Z,17.28
2017-07-24T03:25:16.733Z,17.3
2017-07-24T03:26:16.426Z,17.31
2017-07-24T03:27:16.523Z,17.35
2017-07-24T03:28:16.728Z,17.37
2017-07-24T03:29:16.824Z,17.37
2017-07-24T03:30:16.727Z,17.34
2017-07-24T03:31:16.725Z,17.39
2017-07-24T03:32:16.716Z,17.37
2017-07-24T03:33:16.717Z,17.32
2017-07-24T03:34:16.712Z,17.34
2017-07-24T03:35:16.814Z,17.34
2017-07-24T03:36:16.708Z,17.34
2017-07-24T03:37:16.710Z,17.38
2017-07-24T03:38:16.703Z,17.35
2017-07-24T03:39:16.093Z,17.39
2017-07-24T03:40:16.801Z,17.47
2017-07-24T03:41:16.390Z,17.46
2017-07-24T03:42:16.383Z,17.46
2017-07-24T03:43:16.391Z,17.49
2017-07-24T03:44:16.685Z,17.44
2017-07-24T03:45:16.383Z,17.44
2017-07-24T03:46:16.379Z,17.39
2017-07-24T03:47:16.675Z,17.39
2017-07-24T03:48:16.678Z,17.37
2017-07-24T03:49:16.675Z,17.34
2017-07-24T03:50:16.776Z,17.38
2017-07-24T03:51:16.463Z,17.31
2017-07-24T03:52:16.668Z,17.31
2017-07-24T03:53:16.664Z,17.24
2017-07-24T03:54:16.662Z,17.23
2017-07-24T03:55:16.660Z,17.24
2017-07-24T03:56:16.657Z,17.23
2017-07-24T03:57:16.661Z,17.23
2017-07-24T03:58:16.658Z,17.27
2017-07-24T03:59:16.650Z,17.19
2017-07-24T04:00:16.752Z,17.19
2017-07-24T04:01:16.644Z,17.19
2017-07-24T04:02:16.644Z,17.16
2017-07-24T04:03:16.742Z,17.19
2017-07-24T04:04:16.332Z,17.22
2017-07-24T04:05:16.636Z,17.22
2017-07-24T04:06:16.640Z,17.28
2017-07-24T04:07:16.631Z,17.27
2017-07-24T04:08:16.634Z,17.17
2017-07-24T04:09:16.630Z,17.16
2017-07-24T04:10:16.624Z,17.17
2017-07-24T04:11:16.623Z,17.12
2017-07-24T04:12:16.622Z,17.13
2017-07-24T04:13:16.621Z,17.12
2017-07-24T04:14:16.616Z,17.23
2017-07-24T04:15:16.305Z,17.23
2017-07-24T04:16:16.612Z,17.28
2017-07-24T04:17:16.608Z,17.35
2017-07-24T04:18:16.302Z,17.32
2017-07-24T04:19:16.614Z,17.35
2017-07-24T04:20:16.599Z,17.39
2017-07-24T04:21:16.595Z,17.38
2017-07-24T04:22:16.694Z,17.46
2017-07-24T04:23:16.589Z,17.47
2017-07-24T04:24:16.591Z,17.42
2017-07-24T04:25:16.279Z,17.47
2017-07-24T04:26:16.583Z,17.53
2017-07-24T04:27:16.585Z,17.53
2017-07-24T04:28:16.579Z,17.42
2017-07-24T04:29:16.273Z,17.5
2017-07-24T04:30:16.372Z,17.54
2017-07-24T04:31:16.267Z,17.69
2017-07-24T04:32:16.265Z,17.72
2017-07-24T04:33:16.573Z,17.72
2017-07-24T04:34:16.359Z,17.82
2017-07-24T04:35:16.561Z,17.79
2017-07-24T04:36:16.560Z,17.88
2017-07-24T04:37:16.252Z,17.97
2017-07-24T04:38:15.942Z,18.02
2017-07-24T04:39:16.550Z,18.08
2017-07-24T04:40:16.549Z,18.13
2017-07-24T04:41:16.545Z,18.12
2017-07-24T04:42:16.246Z,18.12
2017-07-24T04:43:16.639Z,18.15
2017-07-24T04:44:16.540Z,18.09
2017-07-24T04:45:16.536Z,18.11
2017-07-24T04:46:16.340Z,18.12
2017-07-24T04:47:16.228Z,18.15
2017-07-24T04:48:16.229Z,18.13
2017-07-24T04:49:16.322Z,18.05
2017-07-24T04:50:16.224Z,18.15
2017-07-24T04:51:16.217Z,18.23
2017-07-24T04:52:16.524Z,18.08
2017-07-24T04:53:16.551Z,18.19
2017-07-24T04:54:16.211Z,18.23
2017-07-24T04:55:16.209Z,18.13
2017-07-24T04:56:16.514Z,18.23
2017-07-24T04:57:16.302Z,18.19
2017-07-24T04:58:16.201Z,18.27
2017-07-24T04:59:16.504Z,18.24
2017-07-24T05:00:16.196Z,18.18
2017-07-24T05:01:16.502Z,18.21
2017-07-24T05:02:16.507Z,18.28
2017-07-24T05:03:16.190Z,18.18
2017-07-24T05:04:16.191Z,18.21
2017-07-24T05:05:16.495Z,18.18
2017-07-24T05:06:16.189Z,18.16
2017-07-24T05:07:16.183Z,18.27
2017-07-24T05:08:16.178Z,18.19
2017-07-24T05:09:16.178Z,18.24
2017-07-24T05:10:16.476Z,18.21
2017-07-24T05:11:16.480Z,18.19
2017-07-24T05:12:16.167Z,18.3
2017-07-24T05:13:16.166Z,18.3
2017-07-24T05:14:16.471Z,18.36
2017-07-24T05:15:16.473Z,18.31
2017-07-24T05:16:16.162Z,18.34
2017-07-24T05:17:16.467Z,18.34
2017-07-24T05:18:16.460Z,18.42
2017-07-24T05:19:16.458Z,18.36
2017-07-24T05:20:16.173Z,18.36
2017-07-24T05:21:16.453Z,18.34
2017-07-24T05:22:16.252Z,18.45
2017-07-24T05:23:16.142Z,18.39
2017-07-24T05:24:16.446Z,18.36
2017-07-24T05:25:16.461Z,18.33
2017-07-24T05:26:16.133Z,18.27
2017-07-24T05:27:16.439Z,18.31
2017-07-24T05:28:16.436Z,18.43
2017-07-24T05:29:16.540Z,18.31
2017-07-24T05:30:16.429Z,18.31
2017-07-24T05:31:16.429Z,18.41
2017-07-24T05:32:16.430Z,18.41
2017-07-24T05:33:16.113Z,18.36
2017-07-24T05:34:16.431Z,18.36
2017-07-24T05:35:16.417Z,18.3
2017-07-24T05:36:16.112Z,18.37
2017-07-24T05:37:16.263Z,18.36
2017-07-24T05:38:16.413Z,18.36
2017-07-24T05:39:16.107Z,18.39
2017-07-24T05:40:16.406Z,18.37
2017-07-24T05:41:16.403Z,18.33
2017-07-24T05:42:16.504Z,18.36
2017-07-24T05:43:16.398Z,18.23
2017-07-24T05:44:16.090Z,18.36
2017-07-24T05:45:16.405Z,18.26
2017-07-24T05:46:16.084Z,18.31
2017-07-24T05:47:16.086Z,18.3
2017-07-24T05:48:16.493Z,18.42
2017-07-24T05:49:16.402Z,18.34
2017-07-24T05:50:16.384Z,18.43
2017-07-24T05:51:16.073Z,18.34
2017-07-24T05:52:16.525Z,18.45
2017-07-24T05:53:16.377Z,18.31
2017-07-24T05:54:16.373Z,18.41
2017-07-24T05:55:16.063Z,18.48
2017-07-24T05:56:16.067Z,18.36
2017-07-24T05:57:16.365Z,18.37
2017-07-24T05:58:16.369Z,18.36
2017-07-24T05:59:16.058Z,18.24
2017-07-24T06:00:16.358Z,18.27
2017-07-24T06:01:16.357Z,18.26
2017-07-24T06:02:16.049Z,18.28
2017-07-24T06:03:16.047Z,18.33
2017-07-24T06:04:16.351Z,18.28
2017-07-24T06:05:16.349Z,18.24
2017-07-24T06:06:16.449Z,18.26
2017-07-24T06:07:16.037Z,18.27
2017-07-24T06:08:16.345Z,18.34
2017-07-24T06:09:16.131Z,18.31
2017-07-24T06:10:16.334Z,18.24
2017-07-24T06:11:16.336Z,18.34
2017-07-24T06:12:16.028Z,18.28
2017-07-24T06:13:16.576Z,18.31
2017-07-24T06:14:16.327Z,18.36
2017-07-24T06:15:16.324Z,18.24
2017-07-24T06:16:16.015Z,18.31
2017-07-24T06:17:16.320Z,18.19
2017-07-24T06:18:16.312Z,18.27
2017-07-24T06:19:16.414Z,18.31
2017-07-24T06:20:16.310Z,18.36
2017-07-24T06:21:16.004Z,18.45
2017-07-24T06:22:16.000Z,18.46
2017-07-24T06:23:16.306Z,18.46
2017-07-24T06:24:15.997Z,18.52
2017-07-24T06:25:15.999Z,18.53
2017-07-24T06:26:15.993Z,18.55
2017-07-24T06:27:15.992Z,18.55
2017-07-24T06:28:15.987Z,18.63
2017-07-24T06:29:16.289Z,18.64
2017-07-24T06:30:15.979Z,18.63
2017-07-24T06:31:16.080Z,18.63
2017-07-24T06:32:16.283Z,18.67
2017-07-24T06:33:16.284Z,18.68
2017-07-24T06:34:16.282Z,18.52
2017-07-24T06:35:16.284Z,18.67
2017-07-24T06:36:16.172Z,18.63
2017-07-24T06:37:15.966Z,18.63
2017-07-24T06:38:16.276Z,18.49
2017-07-24T06:39:16.265Z,18.48
2017-07-24T06:40:16.260Z,18.53
2017-07-24T06:41:16.262Z,18.53
2017-07-24T06:42:16.258Z,18.49
2017-07-24T06:43:16.255Z,18.57
2017-07-24T06:44:16.263Z,18.46
2017-07-24T06:45:15.940Z,18.53
2017-07-24T06:46:16.243Z,18.51
2017-07-24T06:47:16.253Z,18.58
2017-07-24T06:48:16.244Z,18.48
2017-07-24T06:49:16.241Z,18.58
2017-07-24T06:50:15.932Z,18.55
2017-07-24T06:51:16.231Z,18.58
2017-07-24T06:52:15.939Z,18.61
2017-07-24T06:53:15.922Z,18.64
2017-07-24T06:54:15.928Z,18.68
2017-07-24T06:55:16.226Z,18.63
2017-07-24T06:56:15.964Z,18.64
2017-07-24T06:57:16.219Z,18.68
2017-07-24T06:58:15.906Z,18.67
2017-07-24T06:59:15.605Z,18.66
2017-07-24T07:00:16.211Z,18.7
2017-07-24T07:01:16.212Z,18.81
2017-07-24T07:02:16.211Z,18.71
2017-07-24T07:03:16.002Z,18.66
2017-07-24T07:04:16.205Z,18.79
2017-07-24T07:05:15.890Z,18.82
2017-07-24T07:06:15.892Z,18.86
2017-07-24T07:07:15.992Z,18.78
2017-07-24T07:08:15.885Z,18.86
2017-07-24T07:09:16.188Z,18.86
2017-07-24T07:10:16.195Z,18.92
2017-07-24T07:11:16.183Z,18.92
2017-07-24T07:12:16.182Z,18.89
2017-07-24T07:13:16.278Z,18.96
2017-07-24T07:14:16.198Z,18.92
2017-07-24T07:15:15.872Z,18.98
2017-07-24T07:16:15.868Z,18.88
2017-07-24T07:17:15.967Z,18.85
2017-07-24T07:18:16.172Z,18.88
2017-07-24T07:19:15.860Z,18.83
2017-07-24T07:20:15.859Z,18.81
2017-07-24T07:21:15.853Z,18.79
2017-07-24T07:22:16.259Z,18.78
2017-07-24T07:23:15.856Z,18.81
2017-07-24T07:24:15.850Z,18.83
2017-07-24T07:25:15.870Z,18.81
2017-07-24T07:26:15.845Z,18.78
2017-07-24T07:27:16.146Z,18.66
2017-07-24T07:28:15.841Z,18.71
2017-07-24T07:29:15.835Z,18.67
2017-07-24T07:30:16.135Z,18.67
2017-07-24T07:31:15.832Z,18.82
2017-07-24T07:32:15.827Z,18.71
2017-07-24T07:33:16.130Z,18.74
2017-07-24T07:34:16.130Z,18.74
2017-07-24T07:35:15.818Z,18.73
2017-07-24T07:36:15.820Z,18.67
2017-07-24T07:37:15.817Z,18.68
2017-07-24T07:38:16.118Z,18.78
2017-07-24T07:39:16.122Z,18.78
2017-07-24T07:40:15.911Z,18.78
2017-07-24T07:41:16.214Z,18.79
2017-07-24T07:42:16.119Z,18.81
2017-07-24T07:43:15.897Z,18.71
2017-07-24T07:44:15.798Z,18.78
2017-07-24T07:45:16.303Z,18.83
2017-07-24T07:46:15.790Z,18.88
2017-07-24T07:47:15.789Z,18.89
2017-07-24T07:48:15.786Z,18.85
2017-07-24T07:49:16.100Z,18.89
2017-07-24T07:50:15.781Z,18.94
2017-07-24T07:51:15.783Z,18.94
2017-07-24T07:52:15.790Z,18.97
2017-07-24T07:53:16.083Z,19.05
2017-07-24T07:54:15.773Z,19.07
2017-07-24T07:55:16.082Z,19
2017-07-24T07:56:16.074Z,19.08
2017-07-24T07:57:16.073Z,19.11
2017-07-24T07:58:15.865Z,19.17
2017-07-24T07:59:16.066Z,19.23
2017-07-24T08:00:16.061Z,19.29
2017-07-24T08:01:15.759Z,19.26
2017-07-24T08:02:16.159Z,19.47
2017-07-24T08:03:15.751Z,19.42
2017-07-24T08:04:16.058Z,19.55
2017-07-24T08:05:16.053Z,19.66
2017-07-24T08:06:16.053Z,19.7
2017-07-24T08:07:15.760Z,19.7
2017-07-24T08:08:16.046Z,19.74
2017-07-24T08:09:16.042Z,19.71
2017-07-24T08:10:16.042Z,19.82
2017-07-24T08:11:16.040Z,19.75
2017-07-24T08:12:15.733Z,19.82
2017-07-24T08:13:16.135Z,19.87
2017-07-24T08:14:16.031Z,19.81
2017-07-24T08:15:15.926Z,19.85
2017-07-24T08:16:15.718Z,19.79
2017-07-24T08:17:16.027Z,19.81
2017-07-24T08:18:16.023Z,19.89
2017-07-24T08:19:16.020Z,19.93
2017-07-24T08:20:16.019Z,19.92
2017-07-24T08:21:16.120Z,19.99
2017-07-24T08:22:16.014Z,20.02
2017-07-24T08:23:16.025Z,20
2017-07-24T08:24:15.711Z,20.11
2017-07-24T08:25:16.002Z,20.04
2017-07-24T08:26:16.006Z,19.99
2017-07-24T08:27:16.005Z,20.02
2017-07-24T08:28:16.000Z,20.15
2017-07-24T08:29:15.993Z,20.12
2017-07-24T08:30:15.788Z,20.18
2017-07-24T08:31:15.998Z,20.32
2017-07-24T08:32:16.001Z,20.37
2017-07-24T08:33:15.681Z,20.49
2017-07-24T08:34:15.986Z,20.53
2017-07-24T08:35:15.988Z,20.55
2017-07-24T08:36:16.007Z,20.55
2017-07-24T08:37:15.978Z,20.56
2017-07-24T08:38:16.014Z,20.53
2017-07-24T08:39:15.975Z,20.52
2017-07-24T08:40:15.972Z,20.44
2017-07-24T08:41:15.968Z,20.32
2017-07-24T08:42:15.665Z,20.3
2017-07-24T08:43:15.662Z,20.22
2017-07-24T08:44:15.661Z,20.12
2017-07-24T08:45:16.077Z,20
2017-07-24T08:46:16.165Z,19.99
2017-07-24T08:47:15.959Z,19.9
2017-07-24T08:48:15.959Z,19.81
2017-07-24T08:49:15.954Z,19.81
2017-07-24T08:50:15.951Z,19.7
2017-07-24T08:51:15.645Z,19.67
2017-07-24T08:52:15.954Z,19.6
2017-07-24T08:53:15.941Z,19.7
2017-07-24T08:54:15.944Z,19.57
2017-07-24T08:55:16.039Z,19.55
2017-07-24T08:56:15.941Z,19.48
2017-07-24T08:57:15.935Z,19.53
2017-07-24T08:58:15.935Z,19.48
2017-07-24T08:59:15.940Z,19.42
2017-07-24T09:00:15.926Z,19.34
2017-07-24T09:01:15.930Z,19.34
2017-07-24T09:02:15.719Z,19.29
2017-07-24T09:03:15.621Z,19.34
2017-07-24T09:04:15.925Z,19.32
2017-07-24T09:05:15.920Z,19.27
2017-07-24T09:06:15.711Z,19.29
2017-07-24T09:07:16.012Z,19.3
2017-07-24T09:08:15.606Z,19.23
2017-07-24T09:09:15.909Z,19.32
2017-07-24T09:10:15.926Z,19.27
2017-07-24T09:11:15.911Z,19.32
2017-07-24T09:12:16.003Z,19.32
2017-07-24T09:13:15.910Z,19.27
2017-07-24T09:14:15.897Z,19.24
2017-07-24T09:15:15.900Z,19.41
2017-07-24T09:16:15.693Z,19.34
2017-07-24T09:17:15.990Z,19.34
2017-07-24T09:18:15.889Z,19.42
2017-07-24T09:19:15.883Z,19.41
2017-07-24T09:20:15.884Z,19.42
2017-07-24T09:21:15.881Z,19.44
2017-07-24T09:22:15.881Z,19.44
2017-07-24T09:23:15.876Z,19.42
2017-07-24T09:24:15.978Z,19.52
2017-07-24T09:25:15.882Z,19.59
2017-07-24T09:26:15.718Z,19.53
2017-07-24T09:27:15.867Z,19.55
2017-07-24T09:28:15.869Z,19.57
2017-07-24T09:29:15.863Z,19.62
2017-07-24T09:30:15.864Z,19.57
2017-07-24T09:31:15.857Z,19.57
2017-07-24T09:32:15.866Z,19.53
2017-07-24T09:33:15.549Z,19.56
2017-07-24T09:34:15.853Z,19.57
2017-07-24T09:35:15.847Z,19.52
2017-07-24T09:36:15.866Z,19.41
2017-07-24T09:37:15.860Z,19.45
2017-07-24T09:38:15.540Z,19.39
2017-07-24T09:39:15.848Z,19.52
2017-07-24T09:40:15.536Z,19.38
2017-07-24T09:41:15.838Z,19.49
2017-07-24T09:42:15.531Z,19.38
2017-07-24T09:43:15.836Z,19.47
2017-07-24T09:44:15.830Z,19.45
2017-07-24T09:45:15.828Z,19.38
2017-07-24T09:46:15.822Z,19.41
2017-07-24T09:47:15.975Z,19.37
2017-07-24T09:48:15.823Z,19.26
2017-07-24T09:49:15.824Z,19.27
2017-07-24T09:50:15.810Z,19.22
2017-07-24T09:51:15.818Z,19.27
2017-07-24T09:52:15.813Z,19.22
2017-07-24T09:53:15.809Z,19.16
2017-07-24T09:54:15.809Z,19.16
2017-07-24T09:55:15.805Z,19.16
2017-07-24T09:56:15.494Z,19.09
2017-07-24T09:57:15.801Z,18.97
2017-07-24T09:58:15.904Z,19.04
2017-07-24T09:59:15.799Z,19.01
2017-07-24T10:00:15.891Z,18.86
2017-07-24T10:01:15.790Z,18.96
2017-07-24T10:02:15.795Z,18.74
2017-07-24T10:03:15.784Z,18.64
2017-07-24T10:04:15.782Z,18.7
2017-07-24T10:05:15.780Z,18.6
2017-07-24T10:06:15.879Z,18.57
2017-07-24T10:07:15.162Z,18.6
2017-07-24T10:08:15.773Z,18.55
2017-07-24T10:09:15.771Z,18.6
2017-07-24T10:10:15.971Z,18.64
2017-07-24T10:11:15.763Z,18.67
2017-07-24T10:12:15.456Z,18.64
2017-07-24T10:13:15.767Z,18.63
2017-07-24T10:14:15.757Z,18.63
2017-07-24T10:15:15.755Z,18.64
2017-07-24T10:16:15.760Z,18.67
2017-07-24T10:17:15.761Z,18.67
2017-07-24T10:18:15.748Z,18.63
2017-07-24T10:19:15.756Z,18.74
2017-07-24T10:20:15.746Z,18.68
2017-07-24T10:21:15.845Z,18.7
2017-07-24T10:22:15.738Z,18.73
2017-07-24T10:23:15.734Z,18.66
2017-07-24T10:24:15.757Z,18.7
2017-07-24T10:25:15.733Z,18.7
2017-07-24T10:26:15.744Z,18.67
2017-07-24T10:27:15.832Z,18.74
2017-07-24T10:28:15.728Z,18.86
2017-07-24T10:29:15.723Z,18.83
2017-07-24T10:30:15.721Z,18.91
2017-07-24T10:31:15.720Z,18.98
2017-07-24T10:32:15.729Z,19.05
2017-07-24T10:33:15.716Z,19.17
2017-07-24T10:34:15.711Z,19.16
2017-07-24T10:35:15.708Z,19.23
2017-07-24T10:36:15.857Z,19.37
2017-07-24T10:37:15.853Z,19.47
2017-07-24T10:38:15.399Z,19.48
2017-07-24T10:39:15.398Z,19.6
2017-07-24T10:40:15.708Z,19.6
2017-07-24T10:41:15.702Z,19.52
2017-07-24T10:42:15.389Z,19.47
2017-07-24T10:43:15.423Z,19.49
2017-07-24T10:44:15.696Z,19.41
2017-07-24T10:45:15.693Z,19.29
2017-07-24T10:46:15.682Z,19.07
2017-07-24T10:47:15.781Z,18.94
2017-07-24T10:48:15.677Z,18.64
2017-07-24T10:49:15.679Z,18.63
2017-07-24T10:50:15.680Z,18.46
2017-07-24T10:51:15.673Z,18.41
2017-07-24T10:52:15.666Z,18.3
2017-07-24T10:53:15.664Z,18.34
2017-07-24T10:54:15.664Z,18.26
2017-07-24T10:55:15.664Z,18.36
2017-07-24T10:56:15.659Z,18.27
2017-07-24T10:57:15.760Z,18.45
2017-07-24T10:58:15.660Z,18.42
2017-07-24T10:59:15.649Z,18.41
2017-07-24T11:00:15.651Z,18.37
2017-07-24T11:01:15.343Z,18.39
2017-07-24T11:02:15.648Z,18.34
2017-07-24T11:03:15.339Z,18.3
2017-07-24T11:04:15.341Z,18.26
2017-07-24T11:05:15.791Z,18.27
2017-07-24T11:06:15.737Z,18.3
2017-07-24T11:07:15.329Z,18.33
2017-07-24T11:08:15.629Z,18.3
2017-07-24T11:09:15.731Z,18.41
2017-07-24T11:10:15.629Z,18.43
2017-07-24T11:11:15.624Z,18.58
2017-07-24T11:12:15.734Z,18.64
2017-07-24T11:13:15.624Z,18.68
2017-07-24T11:14:15.715Z,18.74
2017-07-24T11:15:15.614Z,18.79
2017-07-24T11:16:15.612Z,18.78
2017-07-24T11:17:15.611Z,18.92
2017-07-24T11:18:15.610Z,18.86
2017-07-24T11:19:15.301Z,18.81
2017-07-24T11:20:15.449Z,18.82
2017-07-24T11:21:15.302Z,18.74
2017-07-24T11:22:14.988Z,18.85
2017-07-24T11:23:15.594Z,18.67
2017-07-24T11:24:15.596Z,18.66
2017-07-24T11:25:15.591Z,18.78
2017-07-24T11:26:15.588Z,18.86
2017-07-24T11:27:15.599Z,19.05
2017-07-24T11:28:15.584Z,19.19
2017-07-24T11:29:15.376Z,19.27
2017-07-24T11:30:15.587Z,19.32
2017-07-24T11:31:15.582Z,19.34
2017-07-24T11:32:15.780Z,19.3
2017-07-24T11:33:15.573Z,19.23
2017-07-24T11:34:15.573Z,19.15
2017-07-24T11:35:15.668Z,19.08
2017-07-24T11:36:15.666Z,18.97
2017-07-24T11:37:15.572Z,19
2017-07-24T11:38:15.566Z,19.19
2017-07-24T11:39:15.560Z,19.26
2017-07-24T11:40:15.561Z,19.44
2017-07-24T11:41:15.558Z,19.52
2017-07-24T11:42:15.557Z,19.52
2017-07-24T11:43:15.554Z,19.71
2017-07-24T11:44:15.547Z,19.84
2017-07-24T11:45:15.548Z,19.92
2017-07-24T11:46:15.543Z,19.96
2017-07-24T11:47:15.559Z,20.12
2017-07-24T11:48:15.545Z,20.19
2017-07-24T11:49:15.537Z,20.21
2017-07-24T11:50:15.537Z,20.17
2017-07-24T11:51:15.534Z,20.32
2017-07-24T11:52:15.533Z,20.46
2017-07-24T11:53:15.228Z,20.56
2017-07-24T11:54:15.015Z,20.66
2017-07-24T11:55:15.526Z,20.73
2017-07-24T11:56:15.745Z,20.9
2017-07-24T11:57:15.525Z,21.07
2017-07-24T11:58:15.522Z,21.08
2017-07-24T11:59:15.210Z,21.1
2017-07-24T12:00:15.518Z,21.2
2017-07-24T12:01:15.667Z,21.26
2017-07-24T12:02:15.210Z,21.43
2017-07-24T12:03:15.511Z,21.44
2017-07-24T12:04:15.514Z,21.47
2017-07-24T12:05:15.613Z,21.59
2017-07-24T12:06:15.347Z,21.63
2017-07-24T12:07:15.503Z,21.78
2017-07-24T12:08:15.513Z,21.72
2017-07-24T12:09:15.500Z,21.6
2017-07-24T12:10:15.527Z,21.6
2017-07-24T12:11:15.493Z,21.58
2017-07-24T12:12:15.495Z,21.45
2017-07-24T12:13:15.490Z,21.5
2017-07-24T12:14:15.186Z,21.59
2017-07-24T12:15:15.585Z,21.53
2017-07-24T12:16:15.486Z,21.43
2017-07-24T12:17:15.485Z,21.51
2017-07-24T12:18:15.483Z,21.6
2017-07-24T12:19:15.484Z,21.58
2017-07-24T12:20:15.479Z,21.66
2017-07-24T12:21:15.480Z,21.75
2017-07-24T12:22:15.268Z,21.81
2017-07-24T12:23:15.472Z,21.74
2017-07-24T12:24:15.490Z,21.7
2017-07-24T12:25:15.475Z,21.63
2017-07-24T12:26:15.470Z,21.51
2017-07-24T12:27:15.466Z,21.54
2017-07-24T12:28:15.568Z,21.51
2017-07-24T12:29:15.463Z,21.65
2017-07-24T12:30:15.460Z,21.6
2017-07-24T12:31:14.844Z,21.62
2017-07-24T12:32:14.845Z,21.62
2017-07-24T12:33:15.454Z,21.58
2017-07-24T12:34:15.604Z,21.6
2017-07-24T12:35:15.460Z,21.54
2017-07-24T12:36:15.454Z,21.58
2017-07-24T12:37:15.453Z,21.65
2017-07-24T12:38:15.447Z,21.69
2017-07-24T12:39:15.544Z,21.63
2017-07-24T12:40:15.139Z,21.68
2017-07-24T12:41:15.438Z,21.78
2017-07-24T12:42:15.443Z,21.81
2017-07-24T12:43:15.434Z,21.74
2017-07-24T12:44:15.436Z,21.63
2017-07-24T12:45:15.432Z,21.68
2017-07-24T12:46:15.429Z,21.69
2017-07-24T12:47:15.433Z,21.62
2017-07-24T12:48:15.530Z,21.62
2017-07-24T12:49:15.426Z,21.56
2017-07-24T12:50:15.429Z,21.63
2017-07-24T12:51:15.619Z,21.6
2017-07-24T12:52:15.430Z,21.54
2017-07-24T12:53:15.467Z,21.47
2017-07-24T12:54:15.414Z,21.54